Time;durP1;ratioP1;P1;durP2;ratioP2;P2;SDS_P1;SDS_P2;PMS_P1;PMS_P2;Temp;Humidity;BMP_temperature;BMP_pressure;BME280_temperature;BME280_humidity;BME280_pressure;Samples;Min_cycle;Max_cycle;Signal;HPM_P1;HPM_P2
2021/05/27 00:02:22;;;;;;;8.35;7.40;;;;;;;30.10;32.41;94297.88;5095875;28;20461;-67
2021/05/27 00:04:49;;;;;;;8.73;6.82;;;;;;;30.13;32.26;94297.81;5095775;28;20044;-52
2021/05/27 00:07:16;;;;;;;7.63;6.88;;;;;;;30.54;31.38;94302.84;5095254;28;20522;-66
2021/05/27 00:09:43;;;;;;;7.95;7.22;;;;;;;30.11;32.26;94300.16;5094820;28;20048;-51
2021/05/27 00:12:11;;;;;;;8.60;6.57;;;;;;;30.67;31.36;94305.69;5095782;28;20556;-69
2021/05/27 00:14:38;;;;;;;7.40;6.70;;;;;;;30.44;31.68;94301.09;5095593;28;20044;-69
2021/05/27 00:17:05;;;;;;;8.50;7.70;;;;;;;30.77;31.13;94293.94;5094965;28;20052;-69
2021/05/27 00:19:33;;;;;;;8.25;7.38;;;;;;;30.54;31.24;94294.75;5095375;28;20052;-55
2021/05/27 00:22:00;;;;;;;8.52;7.10;;;;;;;29.97;32.34;94306.56;5095340;28;20044;-51
2021/05/27 00:24:29;;;;;;;7.47;6.70;;;;;;;30.43;31.54;94304.97;5095554;28;20052;-60
2021/05/27 00:26:56;;;;;;;9.63;7.72;;;;;;;30.30;31.67;94301.38;5094842;28;20437;-63
2021/05/27 00:29:23;;;;;;;8.55;7.65;;;;;;;30.49;31.39;94302.56;5095828;28;20046;-68
2021/05/27 00:31:51;;;;;;;9.48;8.15;;;;;;;30.61;31.28;94296.56;5095008;28;20047;-60
2021/05/27 00:34:18;;;;;;;9.10;8.18;;;;;;;30.27;31.82;94307.59;5095758;28;20044;-61
2021/05/27 00:36:45;;;;;;;8.40;7.47;;;;;;;30.63;31.24;94305.75;5095419;28;20447;-65
2021/05/27 00:39:12;;;;;;;9.63;7.95;;;;;;;30.54;31.36;94305.53;5095856;28;20052;-63
2021/05/27 00:41:40;;;;;;;8.88;7.97;;;;;;;30.17;32.25;94308.53;5095237;28;20055;-51
2021/05/27 00:44:24;;;;;;;9.43;7.88;;;;;;;31.01;30.81;94308.09;5107063;28;20050;-51
2021/05/27 00:46:53;;;;;;;9.30;8.40;;;;;;;30.55;31.45;94312.44;5083020;28;20331;-61
2021/05/27 00:49:21;;;;;;;10.18;8.77;;;;;;;30.28;32.09;94319.91;5095614;28;20040;-53
2021/05/27 00:51:49;;;;;;;9.90;8.30;;;;;;;30.03;32.44;94323.78;5077321;28;20052;-56
2021/05/27 00:54:18;;;;;;;10.75;8.15;;;;;;;30.25;32.27;94320.72;5095325;28;20051;-52
2021/05/27 00:56:48;;;;;;;9.07;8.25;;;;;;;30.49;31.92;94308.72;5095247;28;20044;-49
2021/05/27 00:59:15;;;;;;;9.05;8.15;;;;;;;30.23;32.10;94302.28;5077555;28;20051;-53
2021/05/27 01:01:43;;;;;;;9.18;7.45;;;;;;;30.75;31.29;94299.00;5095131;28;20048;-63
2021/05/27 01:04:10;;;;;;;9.20;7.30;;;;;;;31.00;30.78;94309.25;5095349;28;20046;-53
2021/05/27 01:06:38;;;;;;;8.30;7.55;;;;;;;30.74;31.24;94302.88;5094783;28;20052;-60
2021/05/27 01:09:05;;;;;;;8.40;7.25;;;;;;;30.32;31.90;94321.34;5095443;28;20040;-66
2021/05/27 01:11:33;;;;;;;10.27;8.45;;;;;;;29.71;32.74;94315.47;5095372;28;20059;-59
2021/05/27 01:17:04;;;;;;;9.45;8.15;;;;;;;29.72;32.46;94290.06;5100196;28;20044;-54
2021/05/27 01:19:32;;;;;;;9.30;8.35;;;;;;;30.20;31.83;94288.88;5094629;28;20047;-58
2021/05/27 01:22:00;;;;;;;8.73;7.47;;;;;;;30.66;31.44;94291.44;5094187;28;20047;-53
2021/05/27 01:24:28;;;;;;;9.30;7.80;;;;;;;29.76;32.68;94279.97;5110120;28;20043;-67
2021/05/27 01:26:55;;;;;;;8.43;7.63;;;;;;;29.82;32.47;94272.94;5094453;28;20052;-54
2021/05/27 01:29:22;;;;;;;9.25;8.35;;;;;;;29.86;32.19;94262.84;5093785;28;20459;-57
2021/05/27 01:31:49;;;;;;;9.07;7.70;;;;;;;30.05;31.97;94266.78;5094449;28;20058;-51
2021/05/27 01:34:17;;;;;;;8.98;8.18;;;;;;;29.95;32.14;94273.88;5076866;28;20048;-52
2021/05/27 01:36:46;;;;;;;8.30;7.50;;;;;;;29.87;32.30;94272.47;5076441;28;20036;-54
2021/05/27 01:39:13;;;;;;;11.75;7.63;;;;;;;30.31;31.25;94260.53;5094157;28;20769;-59
2021/05/27 01:41:41;;;;;;;8.57;6.90;;;;;;;30.39;31.31;94267.28;5093794;28;20047;-52
2021/05/27 01:44:08;;;;;;;8.23;7.38;;;;;;;30.80;30.93;94262.66;5087802;28;20249;-62
2021/05/27 01:46:36;;;;;;;8.93;7.55;;;;;;;29.71;32.04;94266.97;5105107;28;20051;-52
2021/05/27 01:49:04;;;;;;;11.38;7.70;;;;;;;30.54;30.84;94267.78;5088683;28;20042;-53
2021/05/27 01:51:31;;;;;;;10.25;7.35;;;;;;;30.21;31.44;94263.44;5094301;28;20050;-55
2021/05/27 01:54:00;;;;;;;7.97;6.75;;;;;;;30.57;31.02;94266.94;5076322;28;20060;-52
2021/05/27 01:56:27;;;;;;;9.77;8.13;;;;;;;29.96;32.02;94272.69;5093897;28;20370;-52
2021/05/27 01:59:06;;;;;;;9.65;7.95;;;;;;;30.04;31.83;94268.72;5094603;28;20044;-58
2021/05/27 02:01:40;;;;;;;8.73;7.93;;;;;;;30.24;31.54;94266.06;5076334;28;20051;-57
2021/05/27 02:04:08;;;;;;;10.40;7.43;;;;;;;30.30;31.34;94263.63;5076602;28;20047;-68
2021/05/27 02:06:35;;;;;;;9.85;7.47;;;;;;;30.43;30.96;94267.22;5093966;28;20047;-67
2021/05/27 02:09:09;;;;;;;9.02;7.63;;;;;;;30.35;31.26;94277.38;5077155;28;20040;-71
2021/05/27 02:11:41;;;;;;;12.57;8.20;;;;;;;30.06;31.88;94285.25;5076177;28;20052;-56
2021/05/27 02:14:11;;;;;;;11.05;8.10;;;;;;;30.54;31.25;94283.97;5106319;28;20058;-53
2021/05/27 02:16:39;;;;;;;9.00;7.72;;;;;;;30.19;31.75;94284.63;5106063;28;20051;-54
2021/05/27 02:19:07;;;;;;;10.32;8.68;;;;;;;30.01;31.98;94277.59;5094635;28;20040;-52
2021/05/27 02:21:37;;;;;;;11.88;8.40;;;;;;;30.33;31.43;94279.72;5075569;28;20051;-54
2021/05/27 02:24:08;;;;;;;11.10;8.70;;;;;;;30.05;31.75;94291.03;5076209;28;20040;-62
2021/05/27 02:26:38;;;;;;;10.40;7.78;;;;;;;29.87;32.24;94280.53;5076085;28;20117;-63
2021/05/27 02:29:13;;;;;;;8.93;8.00;;;;;;;30.08;31.76;94282.88;5093024;28;20048;-52
2021/05/27 02:31:41;;;;;;;10.00;7.75;;;;;;;30.13;31.74;94280.88;5094269;28;20051;-53
2021/05/27 02:34:11;;;;;;;10.35;8.80;;;;;;;29.31;33.21;94272.19;5098189;28;20443;-52
2021/05/27 02:36:40;;;;;;;10.63;8.93;;;;;;;29.92;32.43;94271.22;5068509;28;20078;-68
2021/05/27 02:39:08;;;;;;;10.85;8.15;;;;;;;30.45;31.41;94281.06;5093807;28;20051;-63
2021/05/27 02:41:42;;;;;;;9.20;8.25;;;;;;;30.01;32.32;94279.53;5095929;28;20052;-58
2021/05/27 02:44:14;;;;;;;9.00;8.13;;;;;;;29.82;32.50;94275.63;5075470;28;20063;-67
2021/05/27 02:46:45;;;;;;;9.00;7.80;;;;;;;30.17;31.60;94276.94;5072086;28;20343;-54
2021/05/27 02:49:12;;;;;;;9.63;8.32;;;;;;;29.95;32.08;94275.81;5097893;28;20051;-63
2021/05/27 02:51:43;;;;;;;10.98;8.07;;;;;;;30.18;31.80;94283.09;5097303;28;20051;-52
2021/05/27 02:54:10;;;;;;;9.02;7.28;;;;;;;30.51;31.16;94276.69;5097598;28;20062;-59
2021/05/27 02:56:40;;;;;;;8.45;7.63;;;;;;;30.34;31.52;94273.16;5097508;28;20048;-54
2021/05/27 02:59:08;;;;;;;10.30;8.13;;;;;;;30.24;31.77;94274.13;5079864;28;20043;-52
2021/05/27 03:01:37;;;;;;;8.65;7.07;;;;;;;31.22;30.64;94267.13;5079240;28;20047;-52
2021/05/27 03:04:05;;;;;;;8.43;7.72;;;;;;;31.81;28.98;94285.06;5076022;28;20044;-54
2021/05/27 03:06:32;;;;;;;10.52;8.18;;;;;;;31.03;30.53;94278.72;5077323;28;20474;-66
2021/05/27 03:09:01;;;;;;;9.55;8.30;;;;;;;30.48;31.01;94274.84;5079632;28;20056;-60
2021/05/27 03:11:28;;;;;;;13.07;9.18;;;;;;;29.93;32.15;94281.59;5077813;28;20044;-56
2021/05/27 03:13:59;;;;;;;12.00;9.10;;;;;;;30.12;32.11;94285.53;5079099;28;20045;-54
2021/05/27 03:16:30;;;;;;;9.43;8.30;;;;;;;30.44;31.61;94286.84;5088842;28;20441;-55
2021/05/27 03:18:57;;;;;;;11.52;8.70;;;;;;;30.25;31.79;94283.00;5095875;28;20289;-60
2021/05/27 03:21:26;;;;;;;15.02;9.25;;;;;;;30.32;31.86;94289.00;5096830;28;20044;-55
2021/05/27 03:23:54;;;;;;;9.77;8.60;;;;;;;30.55;31.82;94285.47;5096790;28;20078;-53
2021/05/27 03:26:23;;;;;;;9.82;8.82;;;;;;;30.44;31.81;94287.59;5079237;28;20370;-52
2021/05/27 03:28:52;;;;;;;9.45;8.52;;;;;;;30.05;32.50;94291.81;5078909;28;20055;-51
2021/05/27 03:31:19;;;;;;;9.15;8.07;;;;;;;30.57;31.63;94296.59;5096610;28;20044;-61
2021/05/27 03:33:48;;;;;;;9.85;8.23;;;;;;;30.17;32.30;94292.34;5096746;28;20432;-53
2021/05/27 03:36:17;;;;;;;9.98;8.40;;;;;;;30.32;32.06;94299.03;5093122;28;20039;-64
2021/05/27 03:38:49;;;;;;;11.98;8.98;;;;;;;29.94;32.52;94299.31;5085576;28;20049;-52
2021/05/27 03:41:17;;;;;;;10.63;8.68;;;;;;;30.80;31.21;94295.03;5091132;28;20044;-55
2021/05/27 03:43:45;;;;;;;10.02;9.02;;;;;;;30.51;31.65;94290.19;5077487;28;20044;-53
2021/05/27 03:46:16;;;;;;;9.35;8.38;;;;;;;30.43;31.52;94279.94;5078568;28;20052;-52
2021/05/27 03:48:43;;;;;;;9.23;7.88;;;;;;;30.33;32.06;94289.75;5096662;28;20044;-67
2021/05/27 03:51:11;;;;;;;12.55;7.97;;;;;;;30.43;31.64;94294.19;5096269;28;20481;-69
2021/05/27 03:53:38;;;;;;;10.40;7.85;;;;;;;30.49;31.83;94292.53;5095813;28;20059;-67
2021/05/27 03:56:09;;;;;;;8.57;7.50;;;;;;;30.83;31.20;94299.59;5096380;28;20368;-69
2021/05/27 04:01:38;;;;;;;8.38;7.43;;;;;;;29.86;32.51;94300.56;5070038;28;20047;-68
2021/05/27 04:09:35;;;;;;;8.13;7.22;;;;;;;32.49;28.42;94297.59;5089485;28;20044;-68
2021/05/27 04:15:20;;;;;;;7.57;6.85;;;;;;;33.19;26.92;94306.09;5083767;28;20044;-60
2021/05/27 04:17:35;;;;;;;10.35;6.60;;;;;;;32.00;28.91;94296.16;5093406;28;20044;-49
2021/05/27 04:20:09;;;;;;;7.95;7.13;;;;;;;31.36;29.77;94297.69;5073433;28;20362;-54
2021/05/27 04:22:36;;;;;;;7.80;6.75;;;;;;;31.84;29.32;94295.03;5084261;28;20048;-70
2021/05/27 04:25:03;;;;;;;7.68;6.28;;;;;;;31.51;29.32;94315.09;5075860;28;20044;-54
2021/05/27 04:27:30;;;;;;;7.28;6.40;;;;;;;31.21;29.87;94308.81;5080796;28;20055;-71
2021/05/27 04:30:12;;;;;;;7.97;6.97;;;;;;;31.45;29.83;94309.44;5095427;28;20058;-63
2021/05/27 04:32:54;;;;;;;8.98;6.10;;;;;;;30.70;30.71;94312.94;5084310;28;20040;-61
2021/05/27 04:35:33;;;;;;;10.77;6.13;;;;;;;31.57;28.96;94308.00;5084626;28;20055;-52
2021/05/27 04:38:03;;;;;;;7.65;5.72;;;;;;;32.17;28.16;94311.94;5095453;28;20047;-59
2021/05/27 04:40:31;;;;;;;8.15;7.18;;;;;;;32.68;27.73;94314.09;5092784;28;20052;-56
2021/05/27 04:42:58;;;;;;;9.50;7.50;;;;;;;31.54;29.23;94309.63;5095693;28;20044;-66
2021/05/27 04:45:25;;;;;;;11.43;7.38;;;;;;;31.40;29.02;94314.56;5095322;28;20048;-54
2021/05/27 04:47:53;;;;;;;9.60;7.43;;;;;;;31.14;29.37;94314.34;5094985;28;20056;-56
2021/05/27 04:50:21;;;;;;;11.20;8.50;;;;;;;32.85;27.28;94321.00;5094969;28;20377;-57
2021/05/27 04:52:49;;;;;;;12.18;8.15;;;;;;;32.40;28.07;94318.34;5082898;28;20055;-57
2021/05/27 04:55:17;;;;;;;10.75;7.85;;;;;;;31.43;29.04;94319.91;5075053;28;20048;-62
2021/05/27 04:57:45;;;;;;;8.90;6.90;;;;;;;31.54;29.24;94314.25;5081312;28;20047;-53
2021/05/27 05:00:15;;;;;;;8.20;6.95;;;;;;;30.74;30.49;94308.25;5095137;28;20052;-60
2021/05/27 05:02:42;;;;;;;8.48;6.93;;;;;;;31.54;29.11;94303.47;5091889;28;20056;-57
2021/05/27 05:05:12;;;;;;;10.07;7.10;;;;;;;30.91;29.96;94311.75;5075195;28;20048;-56
2021/05/27 05:07:41;;;;;;;8.45;7.43;;;;;;;31.50;29.61;94308.19;5080022;28;20058;-55
2021/05/27 05:10:10;;;;;;;10.52;8.02;;;;;;;31.21;30.05;94298.00;5094197;28;20058;-56
2021/05/27 05:12:47;;;;;;;9.63;8.70;;;;;;;31.50;29.12;94303.53;5094968;28;20047;-61
2021/05/27 05:15:20;;;;;;;9.95;8.77;;;;;;;31.92;28.91;94300.25;5074888;28;20352;-60
2021/05/27 05:17:55;;;;;;;9.70;8.75;;;;;;;32.42;28.42;94305.91;5094569;28;20040;-59
2021/05/27 05:20:25;;;;;;;10.52;9.15;;;;;;;31.59;29.31;94302.94;5094766;28;20047;-61
2021/05/27 05:22:52;;;;;;;11.07;9.90;;;;;;;31.47;29.50;94300.91;5094942;28;20386;-60
2021/05/27 05:25:21;;;;;;;14.80;9.52;;;;;;;32.08;28.69;94303.69;5095082;28;20048;-56
2021/05/27 05:27:48;;;;;;;11.27;9.88;;;;;;;31.73;29.68;94299.91;5095038;28;20048;-58
2021/05/27 05:30:16;;;;;;;12.05;10.77;;;;;;;32.01;28.77;94308.50;5094600;28;20054;-57
2021/05/27 05:32:44;;;;;;;13.10;11.23;;;;;;;32.05;29.30;94309.19;5076945;28;20044;-56
2021/05/27 05:35:13;;;;;;;12.98;11.50;;;;;;;32.50;28.46;94312.63;5095039;28;20053;-63
2021/05/27 05:37:41;;;;;;;13.70;11.15;;;;;;;31.67;29.35;94311.63;5076971;28;20464;-57
2021/05/27 05:40:09;;;;;;;12.35;11.07;;;;;;;32.34;29.06;94310.00;5094582;28;20047;-56
2021/05/27 05:42:38;;;;;;;13.02;11.82;;;;;;;31.76;29.33;94309.91;5094622;28;20362;-63
2021/05/27 05:45:06;;;;;;;13.05;11.75;;;;;;;32.21;29.16;94309.16;5094593;28;20052;-59
2021/05/27 05:47:33;;;;;;;14.98;12.15;;;;;;;32.56;28.36;94321.00;5094471;28;20052;-56
2021/05/27 05:50:02;;;;;;;15.27;12.35;;;;;;;32.71;27.93;94315.94;5094917;28;20047;-56
2021/05/27 05:52:31;;;;;;;15.70;12.98;;;;;;;32.73;28.40;94314.31;5094687;28;20047;-56
2021/05/27 05:54:58;;;;;;;15.05;13.32;;;;;;;31.76;29.83;94315.31;5094699;28;20059;-61
2021/05/27 05:57:25;;;;;;;15.90;14.20;;;;;;;32.13;28.96;94324.81;5094942;28;20443;-57
2021/05/27 05:59:53;;;;;;;15.93;13.50;;;;;;;33.01;27.30;94318.19;5094561;28;20048;-54
2021/05/27 06:02:20;;;;;;;15.18;13.68;;;;;;;32.33;28.00;94308.47;5094369;28;20052;-62
2021/05/27 06:04:47;;;;;;;15.82;14.23;;;;;;;32.79;27.82;94301.03;5076821;28;20440;-60
2021/05/27 06:07:42;;;;;;;15.27;13.80;;;;;;;32.85;27.37;94310.16;5079108;28;20044;-55
2021/05/27 06:10:10;;;;;;;16.02;13.13;;;;;;;33.29;26.65;94318.53;5088342;28;20040;-64
2021/05/27 06:12:40;;;;;;;15.52;12.85;;;;;;;33.60;25.93;94311.44;5097589;28;20048;-60
2021/05/27 06:15:09;;;;;;;14.70;13.20;;;;;;;33.42;26.56;94305.78;5098441;28;20047;-63
2021/05/27 06:17:36;;;;;;;14.05;11.90;;;;;;;33.72;25.58;94305.22;5098126;28;20358;-58
2021/05/27 06:20:04;;;;;;;13.00;11.45;;;;;;;33.02;26.13;94308.88;5098455;28;20056;-62
2021/05/27 06:22:36;;;;;;;16.35;10.68;;;;;;;33.39;25.88;94303.97;5080345;28;20051;-56
2021/05/27 06:25:07;;;;;;;13.80;11.00;;;;;;;34.06;25.26;94309.16;5098442;28;20059;-64
2021/05/27 06:27:35;;;;;;;13.48;12.02;;;;;;;34.03;25.42;94301.91;5098271;28;20438;-56
2021/05/27 06:30:04;;;;;;;13.18;10.95;;;;;;;33.33;25.67;94295.63;5086819;28;20063;-61
2021/05/27 06:32:34;;;;;;;14.80;11.43;;;;;;;34.00;25.08;94297.38;5097156;28;20048;-57
2021/05/27 06:35:06;;;;;;;11.95;10.68;;;;;;;33.47;25.68;94294.41;5098442;28;20055;-55
2021/05/27 06:37:38;;;;;;;12.27;10.48;;;;;;;33.53;25.27;94292.66;5098301;28;20041;-58
2021/05/27 06:40:06;;;;;;;;;;;;;;;33.94;25.29;94297.19;5080574;28;20477;-59
2021/05/27 06:42:33;;;;;;;13.52;11.82;;;;;;;33.98;24.92;94297.06;5097793;28;20266;-56
2021/05/27 06:45:00;;;;;;;19.75;12.40;;;;;;;34.18;24.96;94296.78;5098031;28;20067;-55
2021/05/27 06:47:27;;;;;;;13.68;12.27;;;;;;;34.05;25.15;94282.50;5097663;28;20055;-60
2021/05/27 06:49:55;;;;;;;15.85;12.65;;;;;;;34.38;24.60;94289.13;5090253;28;20053;-61
2021/05/27 06:52:22;;;;;;;14.70;13.27;;;;;;;35.00;23.88;94286.53;5094718;28;20075;-59
2021/05/27 06:54:51;;;;;;;14.63;12.55;;;;;;;34.80;24.44;94281.41;5098005;28;20058;-62
2021/05/27 06:57:18;;;;;;;16.08;12.60;;;;;;;34.07;25.39;94283.56;5098099;28;20044;-60
2021/05/27 06:59:45;;;;;;;14.32;12.82;;;;;;;34.84;24.47;94276.63;5097566;28;20044;-59
2021/05/27 07:02:13;;;;;;;14.25;12.93;;;;;;;34.61;24.97;94275.13;5097364;28;20063;-57
2021/05/27 07:04:40;;;;;;;16.00;14.30;;;;;;;34.82;24.40;94278.25;5097932;28;20043;-59
2021/05/27 07:07:07;;;;;;;14.52;13.05;;;;;;;34.72;23.58;94280.16;5096203;28;20370;-59
2021/05/27 07:09:34;;;;;;;15.05;13.65;;;;;;;34.89;23.99;94278.78;5077144;28;20044;-59
2021/05/27 07:12:01;;;;;;;14.15;12.82;;;;;;;34.61;24.29;94274.34;5090972;28;20052;-57
2021/05/27 07:14:30;;;;;;;11.25;10.13;;;;;;;34.66;23.49;94279.22;5097360;28;20040;-62
2021/05/27 07:16:57;;;;;;;11.50;10.02;;;;;;;34.95;23.29;94281.69;5097173;28;20048;-56
2021/05/27 07:19:24;;;;;;;10.00;9.00;;;;;;;34.91;23.64;94281.81;5097277;28;20048;-59
2021/05/27 07:21:51;;;;;;;9.95;8.95;;;;;;;35.00;23.39;94280.34;5096708;28;20055;-62
2021/05/27 07:24:18;;;;;;;10.10;9.10;;;;;;;35.23;22.92;94277.88;5097299;28;20044;-61
2021/05/27 07:26:46;;;;;;;10.15;9.18;;;;;;;35.66;22.43;94278.19;5097345;28;20367;-59
2021/05/27 07:29:13;;;;;;;12.52;8.63;;;;;;;35.48;22.46;94274.22;5059331;28;20393;-56
2021/05/27 07:31:40;;;;;;;10.82;9.07;;;;;;;35.49;22.90;94273.00;5086840;28;20040;-58
2021/05/27 07:34:07;;;;;;;10.68;8.48;;;;;;;35.40;22.57;94273.00;5097357;28;20050;-61
2021/05/27 07:36:34;;;;;;;11.10;7.97;;;;;;;35.43;22.39;94263.94;5097109;28;20044;-64
2021/05/27 07:39:02;;;;;;;9.15;8.23;;;;;;;35.51;23.38;94267.88;5096879;28;20046;-63
2021/05/27 07:41:29;;;;;;;10.32;8.43;;;;;;;35.83;22.66;94260.41;5096478;28;20051;-65
2021/05/27 07:43:56;;;;;;;9.73;8.70;;;;;;;36.82;22.84;94268.25;5106544;28;20378;-65
2021/05/27 07:46:23;;;;;;;8.77;7.70;;;;;;;36.31;21.93;94260.75;5107554;28;20054;-57
2021/05/27 07:48:50;;;;;;;11.70;7.53;;;;;;;35.96;22.78;94257.56;5096760;28;20043;-60
2021/05/27 07:51:18;;;;;;;11.95;7.15;;;;;;;36.88;21.53;94261.72;5096116;28;20540;-65
2021/05/27 07:53:45;;;;;;;9.65;7.38;;;;;;;36.45;21.67;94260.16;5096233;28;20063;-54
2021/05/27 07:56:12;;;;;;;9.57;6.68;;;;;;;36.24;21.13;94261.78;5096841;28;20063;-64
2021/05/27 07:58:39;;;;;;;8.32;6.65;;;;;;;36.83;21.16;94261.59;5096447;28;20036;-64
2021/05/27 08:01:06;;;;;;;10.07;6.43;;;;;;;36.86;21.14;94256.00;5096185;28;20044;-66
2021/05/27 08:03:33;;;;;;;9.43;6.40;;;;;;;36.38;21.26;94260.44;5096795;28;20052;-60
2021/05/27 08:06:01;;;;;;;9.32;6.32;;;;;;;36.74;21.00;94265.84;5096682;28;20052;-59
2021/05/27 08:08:28;;;;;;;9.10;6.28;;;;;;;36.42;21.31;94256.34;5096140;28;20051;-65
2021/05/27 08:10:55;;;;;;;8.50;6.38;;;;;;;36.83;20.18;94250.72;5096080;28;20059;-54
2021/05/27 08:13:22;;;;;;;8.23;6.95;;;;;;;36.04;21.38;94243.19;5101445;28;20484;-62
2021/05/27 08:15:49;;;;;;;9.90;5.82;;;;;;;36.26;20.96;94253.19;5116294;28;20048;-58
2021/05/27 08:18:17;;;;;;;7.28;5.97;;;;;;;36.39;20.94;94251.06;5104381;28;20040;-61
2021/05/27 08:20:44;;;;;;;11.75;6.07;;;;;;;36.60;21.14;94238.47;5095872;28;20052;-56
2021/05/27 08:23:11;;;;;;;6.22;5.40;;;;;;;36.49;20.68;94243.66;5096090;28;20079;-64
2021/05/27 08:25:38;;;;;;;6.18;5.10;;;;;;;36.42;20.15;94239.25;5095956;28;20043;-64
2021/05/27 08:28:05;;;;;;;8.18;5.28;;;;;;;36.52;20.40;94243.50;5095706;28;20533;-64
2021/05/27 08:30:32;;;;;;;7.65;5.18;;;;;;;36.61;19.85;94240.75;5095500;28;20474;-65
2021/05/27 08:32:59;;;;;;;6.55;5.38;;;;;;;36.38;20.35;94233.97;5095822;28;20050;-59
2021/05/27 08:35:27;;;;;;;8.00;5.10;;;;;;;36.20;21.13;94227.78;5096195;28;20044;-65
2021/05/27 08:37:54;;;;;;;7.18;4.85;;;;;;;36.62;20.11;94236.81;5095556;28;20040;-56
2021/05/27 08:40:21;;;;;;;6.05;4.60;;;;;;;36.36;20.11;94222.03;5095865;28;20043;-53
2021/05/27 08:42:49;;;;;;;7.28;4.57;;;;;;;36.79;20.53;94220.16;5095540;28;20055;-59
2021/05/27 08:45:16;;;;;;;7.55;4.32;;;;;;;36.32;20.21;94229.63;5111704;28;20051;-61
2021/05/27 08:47:46;;;;;;;6.75;4.45;;;;;;;36.83;18.79;94228.94;5108119;28;20051;-57
2021/05/27 08:50:13;;;;;;;7.60;4.60;;;;;;;36.72;19.47;94224.69;5095539;28;20044;-55
2021/05/27 08:52:40;;;;;;;5.03;4.25;;;;;;;36.58;19.38;94224.56;5095427;28;20078;-62
2021/05/27 08:55:08;;;;;;;6.78;4.32;;;;;;;36.54;19.17;94215.81;5077797;28;20060;-62
2021/05/27 08:57:35;;;;;;;6.93;4.53;;;;;;;36.08;19.90;94211.16;5095391;28;20052;-60
2021/05/27 09:00:04;;;;;;;5.28;4.30;;;;;;;36.19;19.90;94204.53;5095529;28;20324;-56
2021/05/27 09:02:31;;;;;;;7.45;5.03;;;;;;;36.43;19.95;94210.84;5095206;28;20048;-64
2021/05/27 09:05:15;;;;;;;6.15;4.82;;;;;;;36.38;20.63;94195.13;5111351;28;20044;-62
2021/05/27 09:07:42;;;;;;;6.97;4.75;;;;;;;37.12;20.71;94199.16;5109939;28;20126;-60
2021/05/27 09:10:10;;;;;;;6.20;5.07;;;;;;;37.13;19.82;94203.38;5074886;28;20047;-59
2021/05/27 09:12:37;;;;;;;8.15;5.00;;;;;;;36.51;19.88;94193.00;5090016;28;20043;-64
2021/05/27 09:15:16;;;;;;;9.20;5.22;;;;;;;36.88;20.26;94210.00;5095106;28;20047;-58
2021/05/27 09:17:52;;;;;;;12.55;5.15;;;;;;;36.73;19.76;94198.22;5094547;28;20490;-64
2021/05/27 09:20:25;;;;;;;7.30;4.80;;;;;;;36.33;20.28;94198.47;5095074;28;20048;-62
2021/05/27 09:23:17;;;;;;;5.60;4.72;;;;;;;37.16;20.26;94197.00;5093769;28;20374;-59
2021/05/27 09:26:15;;;;;;;7.22;5.18;;;;;;;36.61;20.05;94186.31;5095071;28;20376;-58
2021/05/27 09:28:44;;;;;;;25.23;20.42;;;;;;;36.36;20.72;94181.22;5095292;28;20493;-62
2021/05/27 09:31:14;;;;;;;6.95;5.55;;;;;;;36.57;20.86;94188.44;5094930;28;20055;-57
2021/05/27 09:33:43;;;;;;;8.18;6.15;;;;;;;36.30;21.22;94177.59;5094509;28;20052;-61
2021/05/27 09:36:14;;;;;;;7.55;5.57;;;;;;;36.90;20.47;94180.31;5095102;28;20051;-56
2021/05/27 09:38:43;;;;;;;5.97;5.32;;;;;;;36.72;20.96;94180.38;5093832;28;20036;-57
2021/05/27 09:41:20;;;;;;;7.25;5.40;;;;;;;36.75;21.33;94174.78;5093712;28;20463;-59
2021/05/27 09:43:53;;;;;;;7.55;6.00;;;;;;;37.11;21.27;94159.50;5102828;28;20055;-64
2021/05/27 09:46:22;;;;;;;8.18;5.18;;;;;;;37.01;20.51;94174.38;5096949;28;20047;-59
2021/05/27 09:49:07;;;;;;;8.75;5.60;;;;;;;36.78;20.80;94164.16;5114947;28;20043;-62
2021/05/27 09:51:34;;;;;;;7.45;6.05;;;;;;;36.77;20.92;94160.69;5109572;28;20044;-60
2021/05/27 09:54:02;;;;;;;8.18;5.13;;;;;;;36.54;21.00;94167.56;5094133;28;20056;-58
2021/05/27 09:56:42;;;;;;;10.00;5.93;;;;;;;36.64;21.26;94163.59;5094845;28;20055;-61
2021/05/27 09:59:11;;;;;;;12.25;6.40;;;;;;;36.38;21.64;94159.75;5094486;28;20044;-57
2021/05/27 10:01:39;;;;;;;7.82;5.15;;;;;;;36.14;21.88;94165.06;5094235;28;20047;-61
2021/05/27 10:04:14;;;;;;;7.32;5.13;;;;;;;36.39;21.13;94159.28;5093667;28;20387;-58
2021/05/27 10:06:42;;;;;;;6.55;5.10;;;;;;;36.57;21.36;94158.50;5094673;28;20358;-61
2021/05/27 10:09:10;;;;;;;6.25;5.10;;;;;;;36.58;20.90;94160.00;5094268;28;20439;-55
2021/05/27 10:11:39;;;;;;;6.15;4.90;;;;;;;36.82;21.28;94148.44;5094121;28;20052;-65
2021/05/27 10:14:07;;;;;;;7.07;5.03;;;;;;;36.66;21.96;94154.97;5105402;28;20055;-60
2021/05/27 10:16:37;;;;;;;6.60;5.22;;;;;;;37.15;21.07;94151.91;5114947;28;20044;-57
2021/05/27 10:19:05;;;;;;;6.43;5.40;;;;;;;36.64;21.54;94150.00;5115086;28;20039;-57
2021/05/27 10:21:32;;;;;;;5.32;4.80;;;;;;;36.44;21.95;94144.34;5110606;28;20043;-58
2021/05/27 10:24:03;;;;;;;6.88;4.28;;;;;;;36.68;21.66;94145.13;5093986;28;20446;-56
2021/05/27 10:26:30;;;;;;;9.02;5.00;;;;;;;36.65;21.80;94143.31;5077254;28;20071;-62
2021/05/27 10:29:00;;;;;;;8.35;5.30;;;;;;;36.96;21.37;94134.16;5094083;28;20047;-56
2021/05/27 10:31:27;;;;;;;7.70;4.68;;;;;;;36.44;22.10;94133.44;5094146;28;20052;-55
2021/05/27 10:33:55;;;;;;;6.88;4.53;;;;;;;37.35;20.43;94127.59;5075683;28;20055;-63
2021/05/27 10:36:23;;;;;;;11.77;4.60;;;;;;;36.40;21.49;94121.94;5076271;28;20051;-59
2021/05/27 10:38:51;;;;;;;5.88;4.00;;;;;;;36.72;20.58;94123.19;5059702;28;20344;-59
2021/05/27 10:41:27;;;;;;;5.00;4.05;;;;;;;36.62;19.84;94124.44;5093895;28;20332;-60
2021/05/27 10:44:04;;;;;;;6.32;4.53;;;;;;;36.25;19.58;94121.06;5103524;28;20047;-61
2021/05/27 10:46:32;;;;;;;7.85;4.53;;;;;;;35.77;19.78;94121.56;5107825;28;20043;-57
2021/05/27 10:49:01;;;;;;;6.20;3.97;;;;;;;35.58;20.02;94125.50;5085520;28;20040;-54
2021/05/27 10:51:43;;;;;;;8.73;4.60;;;;;;;36.06;19.88;94131.97;5076445;28;20051;-63
2021/05/27 10:54:13;;;;;;;;;;;;;;;35.69;20.06;94119.63;5096602;28;20052;-62
2021/05/27 10:56:46;;;;;;;7.28;4.38;;;;;;;35.66;20.33;94131.41;5097990;28;20239;-64
2021/05/27 10:59:18;;;;;;;6.88;4.57;;;;;;;36.45;18.93;94118.63;5097765;28;20062;-60
2021/05/27 11:01:45;;;;;;;;;;;;;;;35.59;20.32;94131.69;5098212;28;20047;-59
2021/05/27 11:04:35;;;;;;;8.68;4.90;;;;;;;36.23;19.99;94134.38;5097685;28;19982;-64
2021/05/27 11:07:18;;;;;;;8.00;4.70;;;;;;;36.18;20.77;94124.13;5097499;28;20370;-59
2021/05/27 11:09:46;;;;;;;;;;;;;;;36.12;20.42;94113.06;5097905;28;20040;-55
2021/05/27 11:12:18;;;;;;;5.28;4.43;;;;;;;36.15;21.06;94118.34;5097626;28;20242;-59
2021/05/27 11:14:50;;;;;;;8.63;5.10;;;;;;;36.19;20.34;94120.19;5097319;28;20047;-60
2021/05/27 11:17:19;;;;;;;9.00;5.28;;;;;;;35.59;21.36;94109.94;5097173;28;20363;-55
2021/05/27 11:25:09;;;;;;;8.63;4.55;;;;;;;35.31;21.02;94104.47;5083095;28;20056;-60
2021/05/27 11:27:38;;;;;;;10.15;4.35;;;;;;;35.29;20.87;94101.44;5095069;28;20048;-60
2021/05/27 11:30:30;;;;;;;5.85;4.25;;;;;;;35.39;21.26;94102.97;5097190;28;20472;-57
2021/05/27 11:33:04;;;;;;;6.25;4.53;;;;;;;35.47;21.14;94101.50;5079461;28;20078;-55
2021/05/27 11:35:38;;;;;;;5.68;4.72;;;;;;;35.40;21.69;94103.75;5096607;28;20052;-56
2021/05/27 11:38:39;;;;;;;7.72;4.13;;;;;;;35.45;21.63;94090.31;5097509;28;20053;-63
2021/05/27 11:41:10;;;;;;;6.85;4.13;;;;;;;35.77;20.96;94123.53;5091952;28;20044;-63
2021/05/27 11:43:39;;;;;;;5.55;4.15;;;;;;;35.49;21.05;94118.09;5096771;28;20055;-58
2021/05/27 11:46:12;;;;;;;8.80;5.05;;;;;;;35.09;21.73;94101.09;5096424;28;20047;-58
2021/05/27 11:48:55;;;;;;;6.65;4.78;;;;;;;35.36;21.62;94103.13;5076604;28;20044;-63
2021/05/27 11:51:37;;;;;;;6.90;4.60;;;;;;;35.42;21.50;94091.22;5076566;28;20044;-65
2021/05/27 11:54:07;;;;;;;5.68;4.47;;;;;;;34.81;22.44;94078.56;5079610;28;20455;-61
2021/05/27 11:56:52;;;;;;;6.80;4.38;;;;;;;35.21;21.86;94089.38;5096601;28;20048;-65
2021/05/27 11:59:20;;;;;;;5.93;4.38;;;;;;;35.26;21.93;94085.28;5096828;28;20036;-60
2021/05/27 12:01:55;;;;;;;11.75;5.18;;;;;;;34.91;22.33;94089.03;5096826;28;20059;-58